createdAt,value
2022-11-24T00:01:12.755Z,84.53
2022-11-24T00:06:16.881Z,84.67
2022-11-24T00:11:24.495Z,84.71
2022-11-24T00:16:37.020Z,84.66
2022-11-24T00:21:40.526Z,84.41
2022-11-24T00:26:44.053Z,84.35
2022-11-24T00:31:47.557Z,84.36
2022-11-24T00:36:50.874Z,84.28
2022-11-24T00:41:54.388Z,84.44
2022-11-24T00:46:58.033Z,84.49
2022-11-24T00:52:01.631Z,84.35
2022-11-24T00:57:05.037Z,84.29
2022-11-24T01:02:08.385Z,84.24
2022-11-24T01:07:12.036Z,84.11
2022-11-24T01:12:15.584Z,84.03
2022-11-24T01:17:19.210Z,83.94
2022-11-24T01:22:22.727Z,84.00
2022-11-24T01:27:26.142Z,84.07
2022-11-24T01:32:29.543Z,84.01
2022-11-24T01:37:33.391Z,84.06
2022-11-24T01:42:53.985Z,84.03
2022-11-24T01:47:58.015Z,83.92
2022-11-24T01:53:01.834Z,83.74
2022-11-24T01:58:19.526Z,83.59
2022-11-24T02:03:33.143Z,83.50
2022-11-24T02:08:58.672Z,83.49
2022-11-24T02:14:04.346Z,83.68
2022-11-24T02:19:40.128Z,83.85
2022-11-24T02:25:14.774Z,83.96
2022-11-24T02:30:18.681Z,83.99
2022-11-24T02:35:22.718Z,83.83
2022-11-24T02:40:30.474Z,83.71
2022-11-24T02:45:34.139Z,83.74
2022-11-24T02:50:38.314Z,83.79
2022-11-24T02:55:41.688Z,84.03
2022-11-24T03:00:45.099Z,83.99
2022-11-24T03:05:48.720Z,84.15
2022-11-24T03:10:52.079Z,84.05
2022-11-24T03:15:55.587Z,84.12
2022-11-24T03:21:02.140Z,84.12
2022-11-24T03:26:16.102Z,83.82
2022-11-24T03:31:19.590Z,83.65
2022-11-24T03:36:23.235Z,83.69
2022-11-24T03:41:26.842Z,83.72
2022-11-24T03:46:30.297Z,83.78
2022-11-24T03:51:33.701Z,83.76
2022-11-24T03:56:37.093Z,84.04
2022-11-24T04:01:40.675Z,84.00
2022-11-24T04:06:44.227Z,84.14
2022-11-24T04:12:06.573Z,84.03
2022-11-24T04:17:09.996Z,84.00
2022-11-24T04:22:13.504Z,84.02
2022-11-24T04:27:16.929Z,83.90
2022-11-24T04:32:20.562Z,83.97
2022-11-24T04:37:24.154Z,83.72
2022-11-24T04:42:27.687Z,83.69
2022-11-24T04:47:31.187Z,83.90
2022-11-24T04:52:34.818Z,84.00
2022-11-24T04:57:38.728Z,83.86
2022-11-24T05:02:42.246Z,83.75
2022-11-24T05:07:45.608Z,83.64
2022-11-24T05:12:57.656Z,83.72
2022-11-24T05:18:05.353Z,83.83
2022-11-24T05:23:09.123Z,83.97
2022-11-24T05:28:12.724Z,84.14
2022-11-24T05:33:21.113Z,84.09
2022-11-24T05:38:24.462Z,84.01
2022-11-24T05:43:27.987Z,83.84
2022-11-24T05:48:31.296Z,83.72
2022-11-24T05:53:34.711Z,83.74
2022-11-24T05:58:37.818Z,83.72
2022-11-24T06:03:41.215Z,83.76
2022-11-24T06:08:44.321Z,83.79
2022-11-24T06:13:48.936Z,84.08
2022-11-24T06:18:52.382Z,84.11
2022-11-24T06:23:55.496Z,84.08
2022-11-24T06:28:58.794Z,83.82
2022-11-24T06:34:02.309Z,83.64
2022-11-24T06:39:07.157Z,83.54
2022-11-24T06:44:10.571Z,83.67
2022-11-24T06:49:13.782Z,83.59
2022-11-24T06:54:21.431Z,83.44
2022-11-24T06:59:25.024Z,83.90
2022-11-24T07:04:28.221Z,83.89
2022-11-24T07:09:31.321Z,83.64
2022-11-24T07:14:34.841Z,83.85
2022-11-24T07:19:38.165Z,83.97
2022-11-24T07:24:41.691Z,83.65
2022-11-24T07:29:44.877Z,83.49
2022-11-24T07:34:47.994Z,83.24
2022-11-24T07:39:51.297Z,83.25
2022-11-24T07:44:54.398Z,83.17
2022-11-24T07:49:59.553Z,83.04
2022-11-24T07:55:03.286Z,83.04
2022-11-24T08:00:07.821Z,82.85
2022-11-24T08:05:11.027Z,82.90
2022-11-24T08:10:14.636Z,82.87
2022-11-24T08:15:17.746Z,82.75
2022-11-24T08:20:20.853Z,82.61
2022-11-24T08:25:25.614Z,82.21
2022-11-24T08:30:29.828Z,82.00
2022-11-24T08:35:38.303Z,81.94
2022-11-24T08:40:44.012Z,81.87
2022-11-24T08:45:47.242Z,82.18
2022-11-24T08:50:50.576Z,82.26
2022-11-24T08:55:53.758Z,82.39
2022-11-24T09:01:07.442Z,82.40
2022-11-24T09:06:11.334Z,82.36
2022-11-24T09:11:17.387Z,82.44
2022-11-24T09:16:27.893Z,82.09
2022-11-24T09:21:37.850Z,81.79
2022-11-24T09:26:46.109Z,81.46
2022-11-24T09:31:50.930Z,81.15
2022-11-24T09:36:54.041Z,81.07
2022-11-24T09:42:24.481Z,81.19
2022-11-24T09:48:14.185Z,81.47
2022-11-24T09:54:01.533Z,81.80
2022-11-24T09:59:20.819Z,81.77
2022-11-24T10:04:35.470Z,81.50
2022-11-24T10:10:01.124Z,81.43
2022-11-24T10:15:43.013Z,81.46
2022-11-24T10:21:13.928Z,81.28
2022-11-24T10:26:37.110Z,80.92
2022-11-24T10:31:44.871Z,80.47
2022-11-24T10:37:31.926Z,80.40
2022-11-24T10:42:37.289Z,80.34
2022-11-24T10:47:42.399Z,80.57
2022-11-24T10:53:07.269Z,80.56
2022-11-24T10:58:17.650Z,80.47
2022-11-24T11:03:24.487Z,80.90
2022-11-24T11:08:32.986Z,80.78
2022-11-24T11:13:36.274Z,81.17
2022-11-24T11:18:39.487Z,81.51
2022-11-24T11:23:46.160Z,81.72
2022-11-24T11:34:37.654Z,81.18
2022-11-24T11:39:54.883Z,81.12
2022-11-24T11:45:18.779Z,80.78
2022-11-24T11:51:06.779Z,81.02
2022-11-24T11:56:24.275Z,81.48
2022-11-24T12:02:12.748Z,81.64
2022-11-24T12:07:34.654Z,82.14
2022-11-24T12:13:22.445Z,82.11
2022-11-24T12:19:07.304Z,81.96
2022-11-24T12:24:39.696Z,81.86
2022-11-24T12:29:55.231Z,82.15
2022-11-24T12:35:44.816Z,82.42
2022-11-24T12:41:39.253Z,82.33
2022-11-24T12:47:06.630Z,82.06
2022-11-24T12:52:31.013Z,82.08
2022-11-24T12:57:48.090Z,81.86
2022-11-24T13:03:25.477Z,81.75
2022-11-24T13:08:30.503Z,81.94
2022-11-24T13:14:00.743Z,82.13
2022-11-24T13:19:18.299Z,82.22
2022-11-24T13:24:30.968Z,82.25
2022-11-24T13:29:37.631Z,81.78
2022-11-24T13:34:40.931Z,82.00
2022-11-24T13:39:52.936Z,81.99
2022-11-24T13:45:25.869Z,81.75
2022-11-24T13:51:14.208Z,81.45
2022-11-24T13:56:17.322Z,81.51
2022-11-24T14:01:24.458Z,81.54
2022-11-24T14:06:43.967Z,81.71
2022-11-24T14:12:12.906Z,81.73
2022-11-24T14:17:25.404Z,81.86
2022-11-24T14:22:41.763Z,82.26
2022-11-24T14:27:44.867Z,82.48
2022-11-24T14:32:59.804Z,82.39
2022-11-24T14:38:05.710Z,82.75
2022-11-24T14:43:33.023Z,82.67
2022-11-24T14:48:48.995Z,82.49
2022-11-24T14:54:03.278Z,82.21
2022-11-24T14:59:25.762Z,82.49
2022-11-24T15:05:00.894Z,82.69
2022-11-24T15:10:00.522Z,82.79
2022-11-24T15:15:16.012Z,82.85
2022-11-24T15:20:41.865Z,83.11
2022-11-24T15:25:45.597Z,83.39
2022-11-24T15:30:48.680Z,83.35
2022-11-24T15:35:52.302Z,83.29
2022-11-24T15:41:00.217Z,83.36
2022-11-24T15:46:05.191Z,83.22
2022-11-24T15:51:14.418Z,82.92
2022-11-24T15:56:36.638Z,82.64
2022-11-24T16:01:39.973Z,83.01
2022-11-24T16:06:43.396Z,83.20
2022-11-24T16:11:46.720Z,83.35
2022-11-24T16:16:50.173Z,83.57
2022-11-24T16:21:53.640Z,83.76
2022-11-24T16:26:56.850Z,84.03
2022-11-24T16:31:59.998Z,84.25
2022-11-24T16:37:03.364Z,84.15
2022-11-24T16:42:06.582Z,83.81
2022-11-24T16:47:12.212Z,83.71
2022-11-24T16:52:16.776Z,83.72
2022-11-24T16:57:20.020Z,83.77
2022-11-24T17:02:23.501Z,83.78
2022-11-24T17:07:27.569Z,83.98
2022-11-24T17:12:30.853Z,83.92
2022-11-24T17:17:34.156Z,83.82
2022-11-24T17:22:37.478Z,84.02
2022-11-24T17:27:40.796Z,84.15
2022-11-24T17:32:44.316Z,84.21
2022-11-24T17:37:47.707Z,84.00
2022-11-24T17:42:51.017Z,83.96
2022-11-24T17:47:55.660Z,83.93
2022-11-24T17:52:59.180Z,84.06
2022-11-24T17:58:02.585Z,84.14
2022-11-24T18:03:06.000Z,84.18
2022-11-24T18:08:09.516Z,84.40
2022-11-24T18:13:27.700Z,84.43
2022-11-24T18:18:40.228Z,84.67
2022-11-24T18:23:45.151Z,84.50
2022-11-24T18:28:48.366Z,84.10
2022-11-24T18:33:51.886Z,83.64
2022-11-24T18:38:55.186Z,83.54
2022-11-24T18:44:02.583Z,83.78
2022-11-24T18:49:07.589Z,84.08
2022-11-24T18:54:11.056Z,84.15
2022-11-24T18:59:14.170Z,84.31
2022-11-24T19:04:18.244Z,84.36
2022-11-24T19:09:23.042Z,84.39
2022-11-24T19:14:26.253Z,84.54
2022-11-24T19:19:34.275Z,84.71
2022-11-24T19:24:37.995Z,84.56
2022-11-24T19:29:43.185Z,84.50
2022-11-24T19:34:49.423Z,84.47
2022-11-24T19:39:52.845Z,84.51
2022-11-24T19:44:56.804Z,84.69
2022-11-24T19:50:00.517Z,84.64
2022-11-24T19:55:04.815Z,84.57
2022-11-24T20:00:09.866Z,84.57
2022-11-24T20:05:13.090Z,84.69
2022-11-24T20:10:16.294Z,84.89
2022-11-24T20:15:19.809Z,84.85
2022-11-24T20:20:22.917Z,84.61
2022-11-24T20:25:26.126Z,84.46
2022-11-24T20:30:29.459Z,84.26
2022-11-24T20:35:33.047Z,84.31
2022-11-24T20:40:36.276Z,84.16
2022-11-24T20:45:39.512Z,84.18
2022-11-24T20:50:46.915Z,84.38
2022-11-24T20:55:53.039Z,84.46
2022-11-24T21:00:56.869Z,84.70
2022-11-24T21:06:00.635Z,84.67
2022-11-24T21:11:06.634Z,84.63
2022-11-24T21:16:16.707Z,84.66
2022-11-24T21:21:22.043Z,84.56
2022-11-24T21:26:25.134Z,84.86
2022-11-24T21:31:28.356Z,85.21
2022-11-24T21:36:34.264Z,85.29
2022-11-24T21:41:37.800Z,85.20
2022-11-24T21:46:46.191Z,85.10
2022-11-24T21:51:56.041Z,85.17
2022-11-24T21:56:59.549Z,84.81
2022-11-24T22:02:02.903Z,84.61
2022-11-24T22:07:07.004Z,84.69
2022-11-24T22:12:10.157Z,84.75
2022-11-24T22:17:14.900Z,84.92
2022-11-24T22:22:18.421Z,84.82
2022-11-24T22:27:21.625Z,84.97
2022-11-24T22:32:24.763Z,85.01
2022-11-24T22:37:27.841Z,85.07
2022-11-24T22:42:30.975Z,84.90
2022-11-24T22:47:34.259Z,84.78
2022-11-24T22:52:38.908Z,84.83
2022-11-24T22:57:46.026Z,84.60
2022-11-24T23:02:51.427Z,84.53
2022-11-24T23:07:54.815Z,84.35
2022-11-24T23:12:58.302Z,84.57
2022-11-24T23:18:01.499Z,85.11
2022-11-24T23:23:04.801Z,85.64
2022-11-24T23:28:08.526Z,86.08
2022-11-24T23:33:15.094Z,86.14
2022-11-24T23:38:22.427Z,86.11
2022-11-24T23:43:28.388Z,86.13
2022-11-24T23:48:35.102Z,86.19
2022-11-24T23:53:40.865Z,86.14
2022-11-24T23:58:45.887Z,86.30
